createdAt,value
2023-02-21T00:02:04.510Z,58.03
2023-02-21T00:04:50.505Z,58.25
2023-02-21T00:07:37.584Z,58.69
2023-02-21T00:10:24.298Z,58.37
2023-02-21T00:13:10.534Z,58.59
2023-02-21T00:15:57.799Z,58.57
2023-02-21T00:18:43.603Z,58.53
2023-02-21T00:21:29.446Z,58.40
2023-02-21T00:24:15.409Z,58.41
2023-02-21T00:27:01.171Z,58.76
2023-02-21T00:29:47.260Z,58.44
2023-02-21T00:32:34.719Z,58.25
2023-02-21T00:35:20.642Z,58.20
2023-02-21T00:38:08.548Z,58.57
2023-02-21T00:40:54.510Z,58.55
2023-02-21T00:43:47.084Z,58.54
2023-02-21T00:46:32.884Z,58.45
2023-02-21T00:49:20.296Z,58.83
2023-02-21T00:52:06.152Z,58.82
2023-02-21T00:54:52.358Z,58.88
2023-02-21T00:57:40.611Z,58.82
2023-02-21T01:00:32.757Z,58.67
2023-02-21T01:03:18.712Z,59.25
2023-02-21T01:06:05.796Z,59.06
2023-02-21T01:08:51.746Z,59.23
2023-02-21T01:11:40.181Z,59.33
2023-02-21T01:14:28.430Z,59.59
2023-02-21T01:17:14.594Z,59.58
2023-02-21T01:20:00.701Z,59.78
2023-02-21T01:22:48.054Z,59.60
2023-02-21T01:25:34.480Z,59.50
2023-02-21T01:28:20.473Z,59.56
2023-02-21T01:31:06.285Z,59.55
2023-02-21T01:33:55.298Z,59.52
2023-02-21T01:36:41.351Z,59.63
2023-02-21T01:39:29.027Z,60.09
2023-02-21T01:42:15.046Z,59.76
2023-02-21T01:45:02.556Z,60.07
2023-02-21T01:47:49.394Z,59.92
2023-02-21T01:50:39.666Z,60.05
2023-02-21T01:53:30.454Z,60.05
2023-02-21T01:56:20.065Z,60.07
2023-02-21T01:59:09.665Z,60.18
2023-02-21T02:02:02.913Z,60.43
2023-02-21T02:04:50.918Z,60.57
2023-02-21T02:07:37.361Z,60.66
2023-02-21T02:10:25.859Z,60.64
2023-02-21T02:13:10.336Z,60.70
2023-02-21T02:15:50.523Z,60.80
2023-02-21T02:18:52.994Z,61.35
2023-02-21T02:21:59.172Z,60.97
2023-02-21T02:25:00.192Z,61.17
2023-02-21T02:28:00.157Z,61.33
2023-02-21T02:31:14.085Z,61.37
2023-02-21T02:34:15.703Z,60.92
2023-02-21T02:36:50.268Z,61.07
2023-02-21T02:39:28.813Z,61.07
2023-02-21T02:42:08.630Z,60.88
2023-02-21T02:44:41.104Z,60.55
2023-02-21T02:47:15.342Z,61.27
2023-02-21T02:49:45.544Z,61.43
2023-02-21T02:52:15.216Z,61.30
2023-02-21T02:54:43.578Z,61.56
2023-02-21T02:57:13.241Z,61.34
2023-02-21T02:59:46.666Z,60.82
2023-02-21T03:02:36.646Z,60.64
2023-02-21T03:05:17.348Z,60.73
2023-02-21T03:07:59.402Z,60.79
2023-02-21T03:10:39.802Z,60.50
2023-02-21T03:13:16.913Z,60.60
2023-02-21T03:15:50.836Z,60.20
2023-02-21T03:18:27.072Z,60.71
2023-02-21T03:20:58.990Z,60.49
2023-02-21T03:23:31.978Z,60.63
2023-02-21T03:26:03.952Z,60.59
2023-02-21T03:28:34.614Z,60.33
2023-02-21T03:31:05.968Z,60.65
2023-02-21T03:33:34.881Z,60.60
2023-02-21T03:36:05.812Z,60.53
2023-02-21T03:38:35.787Z,60.46
2023-02-21T03:41:04.183Z,60.61
2023-02-21T03:43:32.915Z,60.71
2023-02-21T03:46:01.359Z,60.60
2023-02-21T03:48:32.440Z,61.00
2023-02-21T03:51:01.154Z,60.60
2023-02-21T03:53:29.548Z,61.15
2023-02-21T03:55:59.315Z,61.04
2023-02-21T03:58:27.654Z,61.08
2023-02-21T04:00:56.029Z,60.65
2023-02-21T04:03:24.768Z,60.82
2023-02-21T04:05:53.260Z,60.84
2023-02-21T04:08:21.630Z,61.20
2023-02-21T04:10:52.548Z,61.34
2023-02-21T04:13:25.037Z,60.99
2023-02-21T04:15:53.421Z,61.44
2023-02-21T04:18:21.772Z,61.06
2023-02-21T04:20:50.875Z,61.51
2023-02-21T04:23:21.470Z,61.13
2023-02-21T04:25:49.986Z,60.98
2023-02-21T04:28:18.540Z,61.27
2023-02-21T04:30:48.382Z,60.89
2023-02-21T04:33:18.512Z,61.00
2023-02-21T04:35:48.809Z,61.25
2023-02-21T04:38:17.454Z,61.23
2023-02-21T04:40:45.979Z,61.16
2023-02-21T04:43:14.456Z,61.42
2023-02-21T04:45:42.877Z,61.91
2023-02-21T04:48:12.638Z,61.37
2023-02-21T04:50:40.935Z,62.07
2023-02-21T04:53:09.431Z,62.06
2023-02-21T04:55:37.971Z,61.42
2023-02-21T04:58:06.475Z,61.65
2023-02-21T05:00:34.957Z,61.73
2023-02-21T05:03:03.327Z,61.69
2023-02-21T05:05:33.228Z,62.22
2023-02-21T05:08:01.654Z,62.06
2023-02-21T05:10:44.666Z,61.63
2023-02-21T05:13:14.037Z,62.41
2023-02-21T05:15:42.387Z,62.25
2023-02-21T05:18:10.788Z,62.04
2023-02-21T05:20:40.481Z,62.18
2023-02-21T05:23:13.882Z,62.64
2023-02-21T05:25:44.332Z,62.58
2023-02-21T05:28:12.669Z,62.52
2023-02-21T05:30:41.505Z,62.58
2023-02-21T05:33:09.981Z,62.93
2023-02-21T05:35:38.346Z,63.04
2023-02-21T05:38:08.030Z,62.49
2023-02-21T05:40:36.408Z,62.86
2023-02-21T05:43:04.814Z,62.98
2023-02-21T05:45:33.118Z,62.89
2023-02-21T05:48:02.521Z,62.68
2023-02-21T05:50:31.879Z,63.18
2023-02-21T05:53:01.013Z,62.62
2023-02-21T05:55:30.671Z,62.80
2023-02-21T05:57:59.074Z,62.67
2023-02-21T06:00:29.675Z,63.08
2023-02-21T06:02:58.004Z,63.00
2023-02-21T06:05:26.603Z,62.68
2023-02-21T06:07:54.940Z,62.62
2023-02-21T06:10:23.253Z,63.13
2023-02-21T06:12:52.977Z,62.57
2023-02-21T06:15:21.275Z,63.05
2023-02-21T06:17:49.579Z,62.91
2023-02-21T06:20:17.968Z,63.12
2023-02-21T06:22:47.375Z,62.96
2023-02-21T06:25:16.283Z,62.96
2023-02-21T06:27:44.974Z,62.63
2023-02-21T06:30:15.442Z,62.78
2023-02-21T06:32:48.025Z,62.66
2023-02-21T06:35:16.544Z,62.66
2023-02-21T06:37:44.915Z,62.41
2023-02-21T06:40:13.862Z,62.50
2023-02-21T06:42:42.168Z,62.36
2023-02-21T06:45:10.588Z,62.62
2023-02-21T06:47:40.312Z,62.26
2023-02-21T06:50:10.498Z,61.82
2023-02-21T06:52:38.854Z,61.98
2023-02-21T06:55:08.669Z,62.20
2023-02-21T06:57:36.974Z,61.98
2023-02-21T07:00:06.813Z,62.58
2023-02-21T07:02:35.810Z,62.00
2023-02-21T07:05:06.061Z,62.50
2023-02-21T07:07:34.383Z,62.13
2023-02-21T07:10:02.720Z,61.99
2023-02-21T07:12:34.193Z,62.40
2023-02-21T07:15:02.573Z,61.60
2023-02-21T07:17:30.903Z,61.67
2023-02-21T07:19:59.331Z,61.61
2023-02-21T07:22:29.103Z,61.95
2023-02-21T07:24:57.634Z,61.51
2023-02-21T07:27:26.035Z,61.80
2023-02-21T07:29:54.386Z,61.63
2023-02-21T07:34:51.100Z,61.34
2023-02-21T07:37:19.448Z,61.15
2023-02-21T07:39:50.187Z,61.25
2023-02-21T07:42:18.560Z,61.41
2023-02-21T07:44:47.927Z,61.24
2023-02-21T07:47:16.907Z,61.01
2023-02-21T07:49:48.095Z,60.98
2023-02-21T07:52:16.537Z,61.01
2023-02-21T07:54:44.889Z,61.02
2023-02-21T07:57:14.622Z,60.94
2023-02-21T07:59:42.981Z,61.01
2023-02-21T08:02:12.796Z,60.78
2023-02-21T08:04:41.656Z,60.75
2023-02-21T08:07:10.414Z,60.58
2023-02-21T08:09:39.921Z,60.76
2023-02-21T08:12:08.266Z,60.40
2023-02-21T08:14:37.943Z,60.43
2023-02-21T08:17:06.296Z,60.36
2023-02-21T08:19:34.648Z,60.42
2023-02-21T08:22:08.117Z,60.02
2023-02-21T08:24:36.466Z,60.06
2023-02-21T08:27:04.923Z,60.48
2023-02-21T08:29:33.279Z,60.22
2023-02-21T08:32:03.106Z,59.93
2023-02-21T08:34:31.474Z,59.94
2023-02-21T08:36:59.812Z,59.90
2023-02-21T08:39:30.106Z,59.95
2023-02-21T08:41:58.454Z,60.05
2023-02-21T08:44:26.795Z,59.99
2023-02-21T08:46:55.232Z,59.32
2023-02-21T08:49:24.954Z,59.36
2023-02-21T08:51:55.059Z,59.07
2023-02-21T08:54:23.394Z,59.17
2023-02-21T08:56:52.091Z,58.74
2023-02-21T08:59:20.574Z,58.94
2023-02-21T09:01:49.162Z,58.87
2023-02-21T09:04:21.181Z,58.30
2023-02-21T09:06:56.530Z,58.90
2023-02-21T09:09:25.123Z,58.19
2023-02-21T09:11:53.510Z,58.92
2023-02-21T09:14:21.864Z,57.94
2023-02-21T09:16:50.222Z,58.68
2023-02-21T09:19:18.654Z,58.15
2023-02-21T09:21:49.538Z,58.76
2023-02-21T09:24:19.326Z,58.09
2023-02-21T09:26:49.557Z,57.72
2023-02-21T09:29:19.471Z,58.34
2023-02-21T09:31:47.901Z,57.96
2023-02-21T09:34:19.603Z,57.80
2023-02-21T09:36:57.943Z,57.43
2023-02-21T09:39:27.707Z,57.55
2023-02-21T09:41:57.660Z,57.40
2023-02-21T09:44:28.927Z,57.17
2023-02-21T09:47:01.110Z,57.35
2023-02-21T09:49:32.906Z,56.62
2023-02-21T09:52:02.357Z,57.05
2023-02-21T09:54:35.149Z,56.93
2023-02-21T09:57:06.784Z,56.66
2023-02-21T09:59:35.235Z,56.11
2023-02-21T10:02:19.710Z,55.85
2023-02-21T10:05:00.785Z,56.04
2023-02-21T10:07:41.812Z,55.36
2023-02-21T10:10:18.019Z,55.46
2023-02-21T10:12:51.505Z,55.45
2023-02-21T10:15:36.199Z,55.28
2023-02-21T10:18:19.253Z,55.59
2023-02-21T10:20:54.703Z,55.50
2023-02-21T10:23:28.869Z,55.26
2023-02-21T10:26:07.309Z,55.21
2023-02-21T10:28:35.918Z,55.38
2023-02-21T10:31:09.928Z,55.28
2023-02-21T10:33:40.436Z,54.81
2023-02-21T10:36:18.423Z,54.51
2023-02-21T10:38:54.928Z,54.57
2023-02-21T10:41:26.408Z,54.84
2023-02-21T10:43:58.383Z,54.60
2023-02-21T10:46:31.195Z,54.56
2023-02-21T10:49:18.388Z,54.21
2023-02-21T10:51:49.170Z,54.29
2023-02-21T10:54:23.101Z,53.68
2023-02-21T10:56:54.580Z,53.28
2023-02-21T10:59:27.580Z,52.90
2023-02-21T11:01:57.667Z,52.69
2023-02-21T11:04:29.515Z,52.29
2023-02-21T11:07:01.527Z,52.14
2023-02-21T11:09:37.164Z,51.70
2023-02-21T11:12:19.014Z,51.15
2023-02-21T11:15:09.116Z,50.82
2023-02-21T11:17:43.910Z,51.35
2023-02-21T11:20:24.646Z,50.82
2023-02-21T11:22:53.161Z,51.46
2023-02-21T11:25:25.204Z,51.12
2023-02-21T11:28:05.474Z,50.21
2023-02-21T11:30:36.707Z,50.77
2023-02-21T11:33:06.781Z,50.30
2023-02-21T11:35:38.717Z,49.97
2023-02-21T11:38:10.030Z,49.67
2023-02-21T11:40:45.076Z,49.33
2023-02-21T11:43:21.149Z,49.07
2023-02-21T11:46:10.079Z,48.58
2023-02-21T11:48:45.952Z,48.84
2023-02-21T11:51:28.456Z,48.44
2023-02-21T11:53:56.830Z,48.60
2023-02-21T11:56:38.495Z,48.21
2023-02-21T11:59:21.151Z,48.18
2023-02-21T12:02:02.560Z,47.68
2023-02-21T12:04:46.489Z,47.16
2023-02-21T12:07:24.666Z,47.47
2023-02-21T12:09:59.355Z,47.21
2023-02-21T12:12:38.370Z,46.84
2023-02-21T12:15:19.153Z,46.45
2023-02-21T12:17:59.483Z,46.12
2023-02-21T12:20:52.642Z,45.90
2023-02-21T12:23:29.438Z,46.09
2023-02-21T12:26:17.532Z,45.72
2023-02-21T12:29:00.614Z,45.55
2023-02-21T12:31:46.508Z,45.47
2023-02-21T12:34:30.694Z,45.56
2023-02-21T12:37:09.177Z,45.47
2023-02-21T12:39:56.590Z,44.72
2023-02-21T12:42:48.813Z,44.51
2023-02-21T12:45:37.164Z,44.47
2023-02-21T12:48:13.539Z,44.43
2023-02-21T12:50:44.903Z,44.66
2023-02-21T12:53:17.582Z,44.56
2023-02-21T12:55:49.807Z,44.41
2023-02-21T12:58:25.116Z,44.16
2023-02-21T13:00:58.423Z,43.96
2023-02-21T13:03:43.416Z,43.56
2023-02-21T13:06:18.091Z,44.06
2023-02-21T13:08:57.540Z,43.63
2023-02-21T13:11:33.005Z,43.74
2023-02-21T13:14:03.059Z,43.38
2023-02-21T13:16:32.768Z,43.27
2023-02-21T13:19:05.790Z,43.14
2023-02-21T13:21:50.737Z,42.80
2023-02-21T13:24:30.879Z,43.03
2023-02-21T13:27:33.545Z,42.72
2023-02-21T13:30:12.633Z,43.18
2023-02-21T13:32:51.936Z,43.31
2023-02-21T13:35:30.021Z,42.85
2023-02-21T13:38:00.496Z,42.86
2023-02-21T13:40:36.655Z,42.63
2023-02-21T13:43:14.066Z,42.49
2023-02-21T13:45:42.567Z,42.48
2023-02-21T13:48:23.689Z,42.16
2023-02-21T13:50:54.853Z,42.04
2023-02-21T13:53:25.221Z,41.93
2023-02-21T13:56:43.995Z,40.84
2023-02-21T13:59:34.193Z,40.94
2023-02-21T14:02:22.767Z,40.95
2023-02-21T14:05:04.089Z,41.09
2023-02-21T14:08:01.800Z,40.84
2023-02-21T14:10:43.059Z,40.67
2023-02-21T14:13:24.752Z,40.49
2023-02-21T14:16:09.769Z,40.51
2023-02-21T14:18:44.166Z,40.69
2023-02-21T14:21:17.693Z,40.58
2023-02-21T14:23:55.867Z,40.17
2023-02-21T14:26:47.961Z,39.88
2023-02-21T14:29:34.448Z,39.64
2023-02-21T14:32:26.465Z,39.55
2023-02-21T14:34:58.065Z,40.02
2023-02-21T14:37:34.068Z,39.65
2023-02-21T14:40:22.009Z,39.04
2023-02-21T14:43:03.220Z,39.01
2023-02-21T14:45:45.679Z,38.91
2023-02-21T14:49:01.438Z,38.20
2023-02-21T14:51:50.677Z,38.73
2023-02-21T14:55:08.076Z,38.71
2023-02-21T14:58:07.515Z,38.58
2023-02-21T15:00:47.955Z,38.84
2023-02-21T15:03:21.740Z,38.57
2023-02-21T15:06:03.589Z,38.25
2023-02-21T15:08:42.196Z,37.74
2023-02-21T15:11:26.330Z,37.66
2023-02-21T15:14:23.761Z,37.88
2023-02-21T15:16:55.591Z,38.61
2023-02-21T15:19:29.155Z,38.56
2023-02-21T15:22:19.979Z,38.08
2023-02-21T15:25:17.804Z,38.44
2023-02-21T15:28:01.658Z,38.58
2023-02-21T15:30:35.079Z,38.63
2023-02-21T15:33:16.105Z,38.81
2023-02-21T15:35:49.788Z,38.96
2023-02-21T15:38:23.143Z,39.04
2023-02-21T15:40:57.158Z,38.98
2023-02-21T15:43:34.496Z,38.85
2023-02-21T15:46:06.441Z,38.98
2023-02-21T15:48:35.859Z,39.00
2023-02-21T15:51:08.126Z,39.02
2023-02-21T15:53:36.487Z,39.07
2023-02-21T15:56:23.953Z,39.05
2023-02-21T15:59:12.735Z,39.13
2023-02-21T16:01:42.887Z,39.36
2023-02-21T16:04:19.641Z,39.49
2023-02-21T16:06:53.642Z,39.52
2023-02-21T16:09:25.679Z,39.58
2023-02-21T16:11:58.988Z,39.70
2023-02-21T16:14:39.772Z,39.62
2023-02-21T16:17:23.372Z,39.54
2023-02-21T16:19:56.122Z,39.83
2023-02-21T16:22:34.156Z,39.73
2023-02-21T16:25:14.010Z,39.82
2023-02-21T16:27:43.864Z,40.31
2023-02-21T16:30:15.327Z,40.31
2023-02-21T16:32:47.481Z,40.31
2023-02-21T16:35:20.716Z,40.54
2023-02-21T16:37:50.890Z,40.61
2023-02-21T16:40:23.730Z,40.43
2023-02-21T16:42:53.465Z,40.70
2023-02-21T16:45:22.638Z,40.81
2023-02-21T16:47:57.579Z,41.16
2023-02-21T16:50:30.905Z,41.31
2023-02-21T16:52:59.918Z,41.39
2023-02-21T16:55:28.892Z,42.07
2023-02-21T16:58:01.133Z,42.23
2023-02-21T17:00:29.879Z,42.06
2023-02-21T17:02:59.684Z,42.69
2023-02-21T17:05:28.107Z,42.79
2023-02-21T17:07:57.479Z,42.66
2023-02-21T17:10:25.982Z,43.03
2023-02-21T17:12:55.000Z,43.16
2023-02-21T17:15:23.899Z,43.75
2023-02-21T17:17:53.926Z,43.87
2023-02-21T17:20:24.449Z,44.02
2023-02-21T17:22:53.188Z,44.20
2023-02-21T17:25:22.946Z,44.30
2023-02-21T17:27:51.691Z,44.35
2023-02-21T17:30:23.325Z,44.76
2023-02-21T17:32:52.295Z,45.01
2023-02-21T17:35:24.639Z,45.16
2023-02-21T17:37:53.208Z,45.54
2023-02-21T17:40:22.706Z,45.47
2023-02-21T17:42:51.245Z,45.72
2023-02-21T17:45:20.756Z,45.87
2023-02-21T17:47:49.721Z,46.43
2023-02-21T17:50:19.103Z,46.59
2023-02-21T17:52:49.039Z,46.81
2023-02-21T17:55:20.128Z,47.00
2023-02-21T17:57:48.483Z,47.39
2023-02-21T18:00:21.773Z,47.59
2023-02-21T18:02:58.090Z,47.62
2023-02-21T18:05:26.439Z,47.72
2023-02-21T18:07:56.102Z,47.62
2023-02-21T18:10:26.487Z,47.39
2023-02-21T18:12:55.400Z,47.40
2023-02-21T18:15:25.178Z,47.84
2023-02-21T18:17:53.558Z,48.05
2023-02-21T18:20:22.209Z,47.89
2023-02-21T18:22:50.570Z,47.76
2023-02-21T18:25:21.496Z,48.16
2023-02-21T18:27:50.281Z,48.06
2023-02-21T18:30:19.433Z,48.18
2023-02-21T18:32:47.976Z,48.55
2023-02-21T18:35:17.569Z,48.55
2023-02-21T18:37:47.145Z,49.03
2023-02-21T18:40:16.673Z,49.32
2023-02-21T18:42:47.624Z,49.30
2023-02-21T18:45:15.963Z,49.59
2023-02-21T18:47:44.310Z,49.88
2023-02-21T18:50:12.782Z,49.80
2023-02-21T18:52:41.365Z,50.31
2023-02-21T18:55:09.876Z,49.86
2023-02-21T18:57:41.792Z,50.06
2023-02-21T19:00:15.254Z,50.43
2023-02-21T19:02:43.596Z,50.16
2023-02-21T19:05:17.209Z,49.64
2023-02-21T19:07:45.804Z,49.50
2023-02-21T19:10:17.597Z,49.90
2023-02-21T19:12:45.955Z,49.95
2023-02-21T19:15:16.652Z,50.29
2023-02-21T19:17:45.265Z,49.99
2023-02-21T19:20:13.866Z,50.13
2023-02-21T19:22:42.486Z,50.16
2023-02-21T19:25:10.996Z,50.59
2023-02-21T19:27:45.360Z,49.88
2023-02-21T19:30:19.448Z,50.69
2023-02-21T19:32:54.064Z,50.59
2023-02-21T19:35:22.406Z,50.68
2023-02-21T19:37:53.443Z,50.31
2023-02-21T19:40:22.124Z,50.48
2023-02-21T19:42:50.518Z,51.04
2023-02-21T19:45:20.950Z,50.75
2023-02-21T19:47:49.321Z,51.26
2023-02-21T19:50:18.412Z,50.96
2023-02-21T19:52:52.755Z,51.41
2023-02-21T19:55:21.660Z,51.29
2023-02-21T19:57:50.492Z,51.12
2023-02-21T20:00:20.683Z,51.23
2023-02-21T20:02:49.533Z,51.36
2023-02-21T20:05:18.773Z,51.35
2023-02-21T20:07:47.117Z,51.90
2023-02-21T20:10:18.005Z,51.98
2023-02-21T20:12:46.526Z,51.91
2023-02-21T20:15:15.833Z,52.06
2023-02-21T20:17:45.756Z,51.71
2023-02-21T20:20:14.164Z,51.70
2023-02-21T20:22:42.863Z,51.83
2023-02-21T20:25:11.320Z,52.28
2023-02-21T20:27:41.769Z,52.27
2023-02-21T20:30:11.721Z,52.24
2023-02-21T20:32:40.101Z,52.27
2023-02-21T20:35:12.590Z,52.44
2023-02-21T20:37:41.320Z,52.99
2023-02-21T20:40:11.208Z,53.14
2023-02-21T20:42:39.781Z,53.03
2023-02-21T20:45:10.487Z,52.79
2023-02-21T20:47:39.380Z,52.93
2023-02-21T20:50:08.773Z,53.13
2023-02-21T20:52:41.136Z,53.08
2023-02-21T20:55:10.239Z,53.06
2023-02-21T20:57:38.713Z,53.14
2023-02-21T21:00:10.447Z,53.20
2023-02-21T21:02:39.391Z,53.12
2023-02-21T21:05:13.797Z,53.11
2023-02-21T21:07:45.000Z,53.32
2023-02-21T21:10:15.749Z,53.34
2023-02-21T21:12:45.465Z,53.17
2023-02-21T21:15:14.514Z,53.29
2023-02-21T21:17:43.810Z,53.15
2023-02-21T21:20:14.386Z,53.23
2023-02-21T21:22:44.441Z,53.52
2023-02-21T21:25:13.262Z,52.92
2023-02-21T21:27:44.335Z,53.09
2023-02-21T21:30:18.217Z,53.57
2023-02-21T21:32:46.816Z,53.51
2023-02-21T21:35:17.652Z,53.63
2023-02-21T21:37:48.237Z,53.72
2023-02-21T21:40:17.408Z,53.41
2023-02-21T21:42:49.111Z,53.91
2023-02-21T21:45:19.640Z,53.44
2023-02-21T21:47:50.085Z,53.79
2023-02-21T21:50:20.445Z,53.53
2023-02-21T21:52:54.528Z,53.49
2023-02-21T21:55:25.582Z,53.73
2023-02-21T21:57:54.521Z,53.77
2023-02-21T22:00:25.201Z,53.81
2023-02-21T22:02:57.441Z,54.08
2023-02-21T22:05:26.420Z,53.73
2023-02-21T22:07:56.621Z,54.04
2023-02-21T22:10:26.348Z,54.03
2023-02-21T22:12:59.869Z,54.03
2023-02-21T22:15:29.768Z,54.55
2023-02-21T22:18:02.012Z,54.77
2023-02-21T22:20:31.859Z,54.61
2023-02-21T22:23:01.686Z,54.70
2023-02-21T22:25:32.084Z,54.68
2023-02-21T22:28:05.169Z,54.59
2023-02-21T22:30:33.475Z,54.92
2023-02-21T22:33:01.819Z,54.74
2023-02-21T22:35:30.483Z,54.56
2023-02-21T22:38:03.004Z,54.64
2023-02-21T22:40:35.610Z,54.57
2023-02-21T22:43:09.005Z,54.73
2023-02-21T22:45:38.436Z,54.23
2023-02-21T22:48:10.015Z,54.37
2023-02-21T22:50:39.477Z,54.85
2023-02-21T22:53:13.008Z,54.69
2023-02-21T22:55:41.459Z,54.35
2023-02-21T22:58:10.895Z,54.31
2023-02-21T23:00:39.329Z,54.04
2023-02-21T23:03:13.208Z,54.32
2023-02-21T23:05:43.633Z,54.28
2023-02-21T23:08:15.562Z,54.47
2023-02-21T23:10:44.369Z,54.67
2023-02-21T23:13:15.324Z,54.30
2023-02-21T23:15:45.084Z,54.18
2023-02-21T23:18:20.251Z,54.51
2023-02-21T23:20:52.549Z,54.31
2023-02-21T23:23:25.938Z,54.32
2023-02-21T23:25:56.443Z,53.91
2023-02-21T23:28:24.788Z,53.85
2023-02-21T23:30:53.324Z,54.04
2023-02-21T23:33:25.090Z,54.25
2023-02-21T23:35:55.277Z,53.76
2023-02-21T23:38:28.179Z,53.64
2023-02-21T23:40:59.001Z,53.60
2023-02-21T23:43:29.534Z,53.93
2023-02-21T23:45:58.732Z,53.71
2023-02-21T23:48:27.469Z,53.63
2023-02-21T23:50:58.299Z,53.44
2023-02-21T23:53:31.737Z,53.78
2023-02-21T23:56:00.785Z,53.22
2023-02-21T23:58:33.307Z,53.82
